createdAt,value
2018-05-03T00:00:13.134Z,1008.00
2018-05-03T00:01:11.884Z,1008.00
2018-05-03T00:02:11.878Z,1008.01
2018-05-03T00:03:11.736Z,1008.05
2018-05-03T00:04:11.693Z,1008.02
2018-05-03T00:05:11.601Z,1008.04
2018-05-03T00:06:11.611Z,1008.03
2018-05-03T00:07:11.401Z,1008.06
2018-05-03T00:08:11.407Z,1008.11
2018-05-03T00:09:11.238Z,1008.12
2018-05-03T00:10:11.208Z,1008.11
2018-05-03T00:11:11.109Z,1008.11
2018-05-03T00:13:53.046Z,1008.11
2018-05-03T00:14:53.062Z,1008.09
2018-05-03T00:15:52.899Z,1008.05
2018-05-03T00:16:52.840Z,1008.06
2018-05-03T00:17:52.728Z,1008.07
2018-05-03T00:18:52.743Z,1008.10
2018-05-03T00:19:52.583Z,1008.12
2018-05-03T00:20:52.582Z,1008.08
2018-05-03T00:21:52.402Z,1008.14
2018-05-03T00:22:52.358Z,1008.13
2018-05-03T00:23:52.247Z,1008.14
2018-05-03T00:24:52.268Z,1008.14
2018-05-03T00:25:52.125Z,1008.14
2018-05-03T00:26:52.078Z,1008.15
2018-05-03T00:27:51.927Z,1008.15
2018-05-03T00:28:51.886Z,1008.15
2018-05-03T00:29:51.780Z,1008.12
2018-05-03T00:30:51.830Z,1008.08
2018-05-03T00:31:51.611Z,1008.13
2018-05-03T00:32:51.630Z,1008.08
2018-05-03T00:33:51.458Z,1008.09
2018-05-03T00:34:51.422Z,1008.11
2018-05-03T00:35:51.325Z,1008.11
2018-05-03T00:36:51.329Z,1008.13
2018-05-03T00:37:51.142Z,1008.16
2018-05-03T00:38:51.127Z,1008.13
2018-05-03T00:39:50.977Z,1008.20
2018-05-03T00:40:50.985Z,1008.18
2018-05-03T00:41:50.955Z,1008.23
2018-05-03T00:42:50.863Z,1008.21
2018-05-03T00:43:50.664Z,1008.22
2018-05-03T00:44:50.660Z,1008.24
2018-05-03T00:45:50.506Z,1008.20
2018-05-03T00:46:50.502Z,1008.18
2018-05-03T00:47:50.354Z,1008.20
2018-05-03T00:48:50.369Z,1008.23
2018-05-03T00:49:50.195Z,1008.23
2018-05-03T00:50:50.191Z,1008.27
2018-05-03T00:51:50.054Z,1008.26
2018-05-03T00:52:49.997Z,1008.25
2018-05-03T00:53:49.871Z,1008.22
2018-05-03T00:54:49.908Z,1008.24
2018-05-03T00:55:49.723Z,1008.24
2018-05-03T00:56:49.747Z,1008.24
2018-05-03T00:57:49.579Z,1008.29
2018-05-03T00:58:49.520Z,1008.20
2018-05-03T00:59:49.448Z,1008.25
2018-05-03T01:00:49.430Z,1008.22
2018-05-03T01:01:49.239Z,1008.23
2018-05-03T01:02:49.277Z,1008.28
2018-05-03T01:03:49.091Z,1008.27
2018-05-03T01:04:49.050Z,1008.33
2018-05-03T01:05:48.925Z,1008.33
2018-05-03T01:06:48.963Z,1008.35
2018-05-03T01:07:48.797Z,1008.33
2018-05-03T01:08:48.772Z,1008.32
2018-05-03T01:09:48.606Z,1008.34
2018-05-03T01:10:48.580Z,1008.32
2018-05-03T01:11:48.442Z,1008.32
2018-05-03T01:12:48.417Z,1008.29
2018-05-03T01:13:48.300Z,1008.27
2018-05-03T01:16:30.562Z,1008.33
2018-05-03T01:17:30.536Z,1008.32
2018-05-03T01:18:30.417Z,1008.34
2018-05-03T01:19:30.418Z,1008.29
2018-05-03T01:20:30.239Z,1008.33
2018-05-03T01:21:30.220Z,1008.28
2018-05-03T01:22:30.075Z,1008.33
2018-05-03T01:23:30.094Z,1008.33
2018-05-03T01:24:29.920Z,1008.34
2018-05-03T01:25:29.931Z,1008.31
2018-05-03T01:26:29.752Z,1008.33
2018-05-03T01:27:29.738Z,1008.35
2018-05-03T01:28:29.620Z,1008.32
2018-05-03T01:29:29.552Z,1008.34
2018-05-03T01:30:29.443Z,1008.34
2018-05-03T01:31:29.466Z,1008.36
2018-05-03T01:32:29.286Z,1008.40
2018-05-03T01:33:29.278Z,1008.44
2018-05-03T01:34:29.150Z,1008.47
2018-05-03T01:35:29.095Z,1008.42
2018-05-03T01:36:28.972Z,1008.43
2018-05-03T01:37:29.000Z,1008.46
2018-05-03T01:38:28.843Z,1008.44
2018-05-03T01:39:28.795Z,1008.43
2018-05-03T01:40:28.647Z,1008.47
2018-05-03T01:43:10.560Z,1008.49
2018-05-03T01:44:11.555Z,1008.48
2018-05-03T01:45:10.410Z,1008.50
2018-05-03T01:46:10.420Z,1008.54
2018-05-03T01:47:10.240Z,1008.55
2018-05-03T01:48:10.223Z,1008.60
2018-05-03T01:49:10.095Z,1008.63
2018-05-03T01:50:10.032Z,1008.61
2018-05-03T01:51:09.934Z,1008.65
2018-05-03T01:52:10.046Z,1008.64
2018-05-03T01:53:09.773Z,1008.58
2018-05-03T01:54:10.822Z,1008.63
2018-05-03T01:55:09.633Z,1008.61
2018-05-03T01:57:51.553Z,1008.59
2018-05-03T02:00:33.670Z,1008.61
2018-05-03T02:01:33.556Z,1008.63
2018-05-03T02:02:33.410Z,1008.67
2018-05-03T02:03:33.360Z,1008.71
2018-05-03T02:04:33.241Z,1008.68
2018-05-03T02:05:33.310Z,1008.74
2018-05-03T02:06:33.079Z,1008.76
2018-05-03T02:07:33.088Z,1008.76
2018-05-03T02:08:32.926Z,1008.81
2018-05-03T02:09:32.887Z,1008.83
2018-05-03T02:10:32.791Z,1008.83
2018-05-03T02:11:32.842Z,1008.86
2018-05-03T02:12:32.606Z,1008.80
2018-05-03T02:15:14.559Z,1008.84
2018-05-03T02:16:14.543Z,1008.87
2018-05-03T02:17:14.411Z,1008.88
2018-05-03T02:18:14.420Z,1008.90
2018-05-03T02:19:14.246Z,1008.91
2018-05-03T02:20:14.222Z,1008.90
2018-05-03T02:21:14.122Z,1008.90
2018-05-03T02:22:14.138Z,1008.91
2018-05-03T02:23:13.925Z,1008.98
2018-05-03T02:24:13.938Z,1008.99
2018-05-03T02:25:13.781Z,1009.05
2018-05-03T02:26:13.764Z,1009.12
2018-05-03T02:27:13.645Z,1009.06
2018-05-03T02:28:13.556Z,1009.08
2018-05-03T02:29:13.449Z,1009.10
2018-05-03T02:30:13.481Z,1009.14
2018-05-03T02:31:13.290Z,1009.12
2018-05-03T02:32:13.312Z,1009.12
2018-05-03T02:33:13.153Z,1009.20
2018-05-03T02:35:55.068Z,1009.21
2018-05-03T02:36:56.039Z,1009.20
2018-05-03T02:37:54.908Z,1009.28
2018-05-03T02:40:37.073Z,1009.35
2018-05-03T02:41:37.098Z,1009.32
2018-05-03T02:42:37.071Z,1009.34
2018-05-03T02:43:36.902Z,1009.33
2018-05-03T02:44:36.748Z,1009.31
2018-05-03T02:45:36.709Z,1009.38
2018-05-03T02:46:36.595Z,1009.36
2018-05-03T02:47:37.583Z,1009.34
2018-05-03T02:48:36.439Z,1009.36
2018-05-03T02:49:36.359Z,1009.36
2018-05-03T02:50:36.296Z,1009.36
2018-05-03T02:51:36.249Z,1009.35
2018-05-03T02:52:36.139Z,1009.38
2018-05-03T02:53:36.166Z,1009.36
2018-05-03T02:54:35.958Z,1009.40
2018-05-03T02:57:18.082Z,1009.40
2018-05-03T02:58:19.143Z,1009.46
2018-05-03T02:59:17.935Z,1009.50
2018-05-03T03:00:17.892Z,1009.49
2018-05-03T03:01:17.762Z,1009.53
2018-05-03T03:02:17.792Z,1009.53
2018-05-03T03:03:17.621Z,1009.55
2018-05-03T03:04:17.584Z,1009.58
2018-05-03T03:05:17.444Z,1009.56
2018-05-03T03:07:59.587Z,1009.61
2018-05-03T03:08:59.633Z,1009.60
2018-05-03T03:09:59.418Z,1009.62
2018-05-03T03:10:59.397Z,1009.61
2018-05-03T03:11:59.251Z,1009.65
2018-05-03T03:12:59.207Z,1009.65
2018-05-03T03:13:59.110Z,1009.69
2018-05-03T03:14:59.122Z,1009.73
2018-05-03T03:15:58.943Z,1009.76
2018-05-03T03:18:41.099Z,1009.77
2018-05-03T03:19:41.057Z,1009.78
2018-05-03T03:20:40.986Z,1009.83
2018-05-03T03:21:40.972Z,1009.86
2018-05-03T03:22:40.772Z,1009.84
2018-05-03T03:23:40.754Z,1009.87
2018-05-03T03:24:40.623Z,1009.89
2018-05-03T03:25:40.566Z,1009.87
2018-05-03T03:26:40.443Z,1009.90
2018-05-03T03:27:40.496Z,1009.92
2018-05-03T03:28:40.283Z,1009.89
2018-05-03T03:29:40.313Z,1009.87
2018-05-03T03:30:40.127Z,1009.90
2018-05-03T03:33:22.078Z,1009.97
2018-05-03T03:34:22.081Z,1010.00
2018-05-03T03:35:22.088Z,1010.01
2018-05-03T03:38:04.079Z,1010.08
2018-05-03T03:39:04.099Z,1010.08
2018-05-03T03:40:03.940Z,1010.14
2018-05-03T03:41:03.931Z,1010.15
2018-05-03T03:42:03.769Z,1010.13
2018-05-03T03:44:45.590Z,1010.16
2018-05-03T03:45:46.563Z,1010.17
2018-05-03T03:46:45.427Z,1010.18
2018-05-03T03:47:45.421Z,1010.16
2018-05-03T03:48:45.261Z,1010.16
2018-05-03T03:49:45.218Z,1010.20
2018-05-03T03:50:45.123Z,1010.22
2018-05-03T03:51:45.139Z,1010.23
2018-05-03T03:52:44.949Z,1010.23
2018-05-03T03:53:44.945Z,1010.26
2018-05-03T03:54:44.786Z,1010.30
2018-05-03T03:55:45.813Z,1010.27
2018-05-03T03:56:44.735Z,1010.31
2018-05-03T03:57:44.664Z,1010.34
2018-05-03T03:58:44.466Z,1010.33
2018-05-03T03:59:44.477Z,1010.35
2018-05-03T04:00:44.313Z,1010.41
2018-05-03T04:01:44.310Z,1010.36
2018-05-03T04:02:44.149Z,1010.38
2018-05-03T04:05:26.090Z,1010.38
2018-05-03T04:06:27.151Z,1010.45
2018-05-03T04:07:25.959Z,1010.48
2018-05-03T04:10:08.094Z,1010.47
2018-05-03T04:12:50.129Z,1010.48
2018-05-03T04:15:32.090Z,1010.52
2018-05-03T04:16:32.093Z,1010.52
2018-05-03T04:17:31.945Z,1010.60
2018-05-03T04:18:31.907Z,1010.60
2018-05-03T04:19:31.764Z,1010.61
2018-05-03T04:20:31.810Z,1010.58
2018-05-03T04:21:31.605Z,1010.56
2018-05-03T04:22:32.775Z,1010.56
2018-05-03T04:23:31.455Z,1010.56
2018-05-03T04:26:13.595Z,1010.65
2018-05-03T04:27:13.566Z,1010.68
2018-05-03T04:28:13.454Z,1010.66
2018-05-03T04:29:13.438Z,1010.69
2018-05-03T04:30:13.262Z,1010.67
2018-05-03T04:31:13.244Z,1010.69
2018-05-03T04:32:13.125Z,1010.69
2018-05-03T04:33:14.074Z,1010.74
2018-05-03T04:34:12.973Z,1010.73
2018-05-03T04:36:55.110Z,1010.75
2018-05-03T04:37:55.073Z,1010.77
2018-05-03T04:38:54.957Z,1010.78
2018-05-03T04:39:54.982Z,1010.73
2018-05-03T04:40:54.778Z,1010.74
2018-05-03T04:41:54.697Z,1010.77
2018-05-03T04:42:54.607Z,1010.73
2018-05-03T04:43:54.562Z,1010.72
2018-05-03T04:44:54.447Z,1010.75
2018-05-03T04:45:54.375Z,1010.78
2018-05-03T04:46:54.412Z,1010.81
2018-05-03T04:47:54.314Z,1010.84
2018-05-03T04:48:54.159Z,1010.87
2018-05-03T04:51:36.107Z,1010.94
2018-05-03T04:52:36.128Z,1010.97
2018-05-03T04:53:35.947Z,1011.00
2018-05-03T04:54:36.988Z,1011.03
2018-05-03T04:55:35.790Z,1011.02
2018-05-03T04:56:35.807Z,1011.06
2018-05-03T04:57:35.628Z,1011.04
2018-05-03T04:58:35.643Z,1011.07
2018-05-03T04:59:35.500Z,1011.11
2018-05-03T05:00:35.447Z,1011.12
2018-05-03T05:01:35.320Z,1011.13
2018-05-03T05:04:17.631Z,1011.20
2018-05-03T05:05:17.596Z,1011.24
2018-05-03T05:06:17.456Z,1011.29
2018-05-03T05:07:17.488Z,1011.30
2018-05-03T05:08:17.335Z,1011.35
2018-05-03T05:09:17.281Z,1011.34
2018-05-03T05:10:17.146Z,1011.37
2018-05-03T05:11:17.098Z,1011.35
2018-05-03T05:12:16.967Z,1011.33
2018-05-03T05:13:17.007Z,1011.39
2018-05-03T05:14:16.804Z,1011.37
2018-05-03T05:15:16.851Z,1011.42
2018-05-03T05:16:16.674Z,1011.43
2018-05-03T05:17:16.641Z,1011.47
2018-05-03T05:18:16.485Z,1011.44
2018-05-03T05:20:58.690Z,1011.53
2018-05-03T05:21:58.810Z,1011.56
2018-05-03T05:22:58.478Z,1011.61
2018-05-03T05:23:58.434Z,1011.65
2018-05-03T05:24:58.289Z,1011.68
2018-05-03T05:25:58.297Z,1011.69
2018-05-03T05:26:58.133Z,1011.70
2018-05-03T05:27:58.150Z,1011.75
2018-05-03T05:28:57.968Z,1011.77
2018-05-03T05:29:57.976Z,1011.76
2018-05-03T05:30:57.817Z,1011.82
2018-05-03T05:31:57.774Z,1011.85
2018-05-03T05:32:57.652Z,1011.83
2018-05-03T05:33:57.687Z,1011.86
2018-05-03T05:34:57.483Z,1011.86
2018-05-03T05:35:57.542Z,1011.91
2018-05-03T05:36:57.361Z,1011.90
2018-05-03T05:37:57.303Z,1011.90
2018-05-03T05:38:57.258Z,1011.93
2018-05-03T05:39:57.221Z,1011.91
2018-05-03T05:40:57.023Z,1011.96
2018-05-03T05:41:57.036Z,1011.96
2018-05-03T05:42:56.852Z,1011.99
2018-05-03T05:43:56.777Z,1012.00
2018-05-03T05:44:56.700Z,1011.95
2018-05-03T05:45:57.703Z,1012.02
2018-05-03T05:46:56.523Z,1012.02
2018-05-03T05:47:57.509Z,1012.02
2018-05-03T05:48:56.368Z,1011.99
2018-05-03T05:51:38.620Z,1012.03
2018-05-03T05:52:38.609Z,1012.05
2018-05-03T05:53:38.470Z,1012.01
2018-05-03T05:56:20.612Z,1012.11
2018-05-03T05:57:20.633Z,1012.08
2018-05-03T05:58:20.450Z,1012.12
2018-05-03T05:59:20.485Z,1012.23
2018-05-03T06:00:20.286Z,1012.24
2018-05-03T06:03:02.145Z,1012.44
2018-05-03T06:04:02.089Z,1012.53
2018-05-03T06:05:01.960Z,1012.29
2018-05-03T06:06:01.996Z,1012.28
2018-05-03T06:07:01.810Z,1012.29
2018-05-03T06:08:01.839Z,1012.40
2018-05-03T06:09:01.648Z,1012.44
2018-05-03T06:11:43.621Z,1012.50
2018-05-03T06:12:43.651Z,1012.54
2018-05-03T06:13:43.452Z,1012.68
2018-05-03T06:16:25.665Z,1012.56
2018-05-03T06:17:25.599Z,1012.50
2018-05-03T06:18:25.475Z,1012.67
2018-05-03T06:19:25.429Z,1012.62
2018-05-03T06:20:25.303Z,1012.61
2018-05-03T06:21:25.340Z,1012.73
2018-05-03T06:22:25.142Z,1013.09
2018-05-03T06:23:25.193Z,1013.08
2018-05-03T06:24:25.018Z,1012.98
2018-05-03T06:25:24.955Z,1012.88
2018-05-03T06:26:24.829Z,1012.90
2018-05-03T06:27:24.864Z,1012.82
2018-05-03T06:28:24.670Z,1012.87
2018-05-03T06:29:24.713Z,1012.99
2018-05-03T06:30:24.514Z,1013.05
2018-05-03T06:31:24.500Z,1012.98
2018-05-03T06:32:24.389Z,1013.13
2018-05-03T06:33:24.405Z,1013.23
2018-05-03T06:34:24.893Z,1012.98
2018-05-03T06:35:24.216Z,1013.10
2018-05-03T06:36:24.043Z,1013.29
2018-05-03T06:39:06.154Z,1013.13
2018-05-03T06:40:06.104Z,1013.15
2018-05-03T06:41:06.006Z,1012.95
2018-05-03T06:42:05.929Z,1012.98
2018-05-03T06:43:05.820Z,1013.10
2018-05-03T06:44:05.841Z,1013.08
2018-05-03T06:45:05.667Z,1012.92
2018-05-03T06:46:06.703Z,1012.93
2018-05-03T06:47:05.507Z,1013.08
2018-05-03T06:48:05.508Z,1012.96
2018-05-03T06:49:05.367Z,1013.20
2018-05-03T06:51:47.661Z,1013.33
2018-05-03T06:52:47.662Z,1013.23
2018-05-03T06:53:47.467Z,1013.34
2018-05-03T06:54:47.485Z,1013.17
2018-05-03T06:55:47.365Z,1013.19
2018-05-03T06:56:47.272Z,1013.20
2018-05-03T06:57:47.164Z,1013.39
2018-05-03T06:58:47.202Z,1013.47
2018-05-03T06:59:47.016Z,1013.41
2018-05-03T07:00:47.042Z,1013.35
2018-05-03T07:01:46.855Z,1013.38
2018-05-03T07:04:29.232Z,1013.24
2018-05-03T07:05:29.151Z,1013.17
2018-05-03T07:06:28.982Z,1013.30
2018-05-03T07:07:29.037Z,1013.28
2018-05-03T07:08:28.832Z,1013.19
2018-05-03T07:11:11.175Z,1013.25
2018-05-03T07:12:11.204Z,1013.25
2018-05-03T07:13:11.015Z,1013.34
2018-05-03T07:14:10.995Z,1013.32
2018-05-03T07:15:10.869Z,1013.38
2018-05-03T07:16:10.897Z,1013.54
2018-05-03T07:17:10.683Z,1013.54
2018-05-03T07:18:10.610Z,1013.45
2018-05-03T07:19:10.536Z,1013.30
2018-05-03T07:20:10.458Z,1013.27
2018-05-03T07:21:10.428Z,1013.31
2018-05-03T07:22:10.300Z,1013.40
2018-05-03T07:23:10.223Z,1013.22
2018-05-03T07:24:10.175Z,1013.21
2018-05-03T07:25:10.061Z,1013.18
2018-05-03T07:26:10.027Z,1013.28
2018-05-03T07:27:09.907Z,1013.34
2018-05-03T07:28:09.844Z,1013.49
2018-05-03T07:29:09.761Z,1013.54
2018-05-03T07:30:09.693Z,1013.51
2018-05-03T07:31:09.625Z,1013.42
2018-05-03T07:33:51.637Z,1013.54
2018-05-03T07:34:51.639Z,1013.51
2018-05-03T07:35:51.493Z,1013.51
2018-05-03T07:36:52.446Z,1013.38
2018-05-03T07:37:51.341Z,1013.37
2018-05-03T07:38:51.301Z,1013.42
2018-05-03T07:39:51.189Z,1013.44
2018-05-03T07:40:51.173Z,1013.39
2018-05-03T07:41:51.051Z,1013.55
2018-05-03T07:42:51.017Z,1013.56
2018-05-03T07:43:50.901Z,1013.64
2018-05-03T07:46:33.182Z,1013.51
2018-05-03T07:47:33.090Z,1013.56
2018-05-03T07:48:33.039Z,1013.67
2018-05-03T07:49:32.952Z,1013.57
2018-05-03T07:50:32.940Z,1013.62
2018-05-03T07:51:32.898Z,1013.62
2018-05-03T07:52:32.722Z,1013.71
2018-05-03T07:53:32.629Z,1013.74
2018-05-03T07:54:32.549Z,1013.76
2018-05-03T07:57:14.679Z,1013.80
2018-05-03T07:58:14.612Z,1013.76
2018-05-03T07:59:14.511Z,1013.90
2018-05-03T08:00:14.453Z,1013.92
2018-05-03T08:01:14.405Z,1013.82
2018-05-03T08:02:14.318Z,1013.94
2018-05-03T08:03:14.237Z,1013.86
2018-05-03T08:04:14.157Z,1013.82
2018-05-03T08:05:14.070Z,1013.93
2018-05-03T08:06:14.060Z,1014.07
2018-05-03T08:07:13.950Z,1014.03
2018-05-03T08:08:14.874Z,1014.00
2018-05-03T08:09:13.773Z,1013.89
2018-05-03T08:10:13.694Z,1013.93
2018-05-03T08:11:13.633Z,1013.92
2018-05-03T08:12:13.546Z,1013.90
2018-05-03T08:13:13.492Z,1013.88
2018-05-03T08:14:13.397Z,1013.93
2018-05-03T08:15:13.364Z,1013.97
2018-05-03T08:16:13.261Z,1013.97
2018-05-03T08:17:13.213Z,1014.04
2018-05-03T08:19:55.197Z,1014.05
2018-05-03T08:20:55.097Z,1014.14
2018-05-03T08:21:55.026Z,1014.12
2018-05-03T08:22:54.946Z,1013.96
2018-05-03T08:23:54.884Z,1014.02
2018-05-03T08:26:37.192Z,1014.25
2018-05-03T08:29:19.183Z,1014.09
2018-05-03T08:30:19.117Z,1014.40
2018-05-03T08:31:19.016Z,1014.40
2018-05-03T08:32:19.018Z,1014.45
2018-05-03T08:33:18.881Z,1014.33
2018-05-03T08:34:19.819Z,1014.36
2018-05-03T08:35:18.740Z,1014.23
2018-05-03T08:38:00.664Z,1014.49
2018-05-03T08:39:00.599Z,1014.48
2018-05-03T08:40:00.569Z,1014.45
2018-05-03T08:41:00.455Z,1014.35
2018-05-03T08:42:00.384Z,1014.29
2018-05-03T08:43:00.310Z,1014.43
2018-05-03T08:44:00.277Z,1014.38
2018-05-03T08:45:00.192Z,1014.44
2018-05-03T08:46:00.124Z,1014.41
2018-05-03T08:48:42.185Z,1014.51
2018-05-03T08:49:43.152Z,1014.52
2018-05-03T08:50:42.017Z,1014.50
2018-05-03T08:51:41.974Z,1014.58
2018-05-03T08:52:41.902Z,1014.54
2018-05-03T08:53:41.806Z,1014.80
2018-05-03T08:54:41.753Z,1014.96
2018-05-03T08:57:23.693Z,1014.81
2018-05-03T08:58:23.611Z,1014.58
2018-05-03T08:59:23.536Z,1014.57
2018-05-03T09:00:24.492Z,1014.54
2018-05-03T09:01:23.419Z,1014.51
2018-05-03T09:04:05.683Z,1014.76
2018-05-03T09:05:05.649Z,1014.75
2018-05-03T09:06:05.530Z,1014.60
2018-05-03T09:07:05.497Z,1014.80
2018-05-03T09:08:05.395Z,1014.75
2018-05-03T09:09:05.325Z,1015.03
2018-05-03T09:10:05.272Z,1014.69
2018-05-03T09:11:05.201Z,1014.97
2018-05-03T09:12:05.107Z,1014.68
2018-05-03T09:14:47.183Z,1014.74
2018-05-03T09:15:47.151Z,1014.46
2018-05-03T09:16:47.046Z,1014.48
2018-05-03T09:17:46.992Z,1014.57
2018-05-03T09:18:46.900Z,1014.59
2018-05-03T09:21:29.212Z,1014.41
2018-05-03T09:24:11.201Z,1014.66
2018-05-03T09:25:11.141Z,1014.73
2018-05-03T09:26:11.073Z,1014.92
2018-05-03T09:27:10.992Z,1014.86
2018-05-03T09:28:10.910Z,1014.87
2018-05-03T09:29:10.843Z,1014.82
2018-05-03T09:30:10.755Z,1014.84
2018-05-03T09:31:10.734Z,1014.80
2018-05-03T09:32:10.623Z,1014.83
2018-05-03T09:33:10.566Z,1014.96
2018-05-03T09:34:10.473Z,1015.08
2018-05-03T09:35:10.411Z,1014.96
2018-05-03T09:36:10.360Z,1015.12
2018-05-03T09:37:10.272Z,1015.06
2018-05-03T09:38:10.184Z,1015.18
2018-05-03T09:40:52.196Z,1015.11
2018-05-03T09:41:52.195Z,1015.00
2018-05-03T09:42:52.051Z,1014.90
2018-05-03T09:45:34.188Z,1014.84
2018-05-03T09:46:34.164Z,1014.94
2018-05-03T09:47:34.066Z,1014.87
2018-05-03T09:50:16.188Z,1014.88
2018-05-03T09:51:16.278Z,1014.79
2018-05-03T09:52:16.104Z,1014.85
2018-05-03T09:53:16.107Z,1014.92
2018-05-03T09:54:15.907Z,1014.96
2018-05-03T09:55:15.898Z,1014.87
2018-05-03T09:56:15.771Z,1015.12
2018-05-03T09:57:15.762Z,1014.73
2018-05-03T09:58:15.639Z,1014.72
2018-05-03T09:59:15.603Z,1014.98
2018-05-03T10:00:15.485Z,1014.75
2018-05-03T10:02:57.721Z,1014.74
2018-05-03T10:05:39.701Z,1014.78
2018-05-03T10:06:40.697Z,1014.77
2018-05-03T10:07:39.643Z,1014.83
2018-05-03T10:08:39.556Z,1014.97
2018-05-03T10:09:39.410Z,1014.83
2018-05-03T10:12:21.733Z,1014.90
2018-05-03T10:13:21.798Z,1014.95
2018-05-03T10:14:21.575Z,1014.91
2018-05-03T10:17:03.844Z,1015.20
2018-05-03T10:18:03.734Z,1015.10
2018-05-03T10:19:03.573Z,1015.19
2018-05-03T10:20:03.609Z,1015.11
2018-05-03T10:21:03.431Z,1014.75
2018-05-03T10:22:03.482Z,1014.78
2018-05-03T10:23:03.335Z,1015.14
2018-05-03T10:24:03.282Z,1015.28
2018-05-03T10:25:03.135Z,1015.23
2018-05-03T10:26:03.080Z,1015.34
2018-05-03T10:27:02.999Z,1015.31
2018-05-03T10:28:02.952Z,1015.20
2018-05-03T10:29:03.019Z,1015.11
2018-05-03T10:30:02.897Z,1014.91
2018-05-03T10:31:02.728Z,1015.01
2018-05-03T10:33:44.737Z,1014.89
2018-05-03T10:36:26.733Z,1014.88
2018-05-03T10:39:08.735Z,1015.01
2018-05-03T10:41:50.714Z,1015.04
2018-05-03T10:42:50.921Z,1015.07
2018-05-03T10:43:50.598Z,1014.86
2018-05-03T10:44:50.516Z,1014.89
2018-05-03T10:45:50.709Z,1014.84
2018-05-03T10:46:50.439Z,1014.81
2018-05-03T10:47:50.333Z,1014.85
2018-05-03T10:48:50.872Z,1014.93
2018-05-03T10:49:50.405Z,1014.97
2018-05-03T10:50:50.850Z,1015.17
2018-05-03T10:51:50.026Z,1015.16
2018-05-03T10:52:49.947Z,1015.20
2018-05-03T10:53:49.903Z,1015.14
2018-05-03T10:54:52.097Z,1015.15
2018-05-03T10:55:49.752Z,1015.11
2018-05-03T10:56:49.776Z,1015.13
2018-05-03T10:57:49.610Z,1015.05
2018-05-03T10:58:52.510Z,1014.85
2018-05-03T10:59:49.516Z,1014.92
2018-05-03T11:02:31.714Z,1014.96
2018-05-03T11:03:31.690Z,1014.89
2018-05-03T11:04:31.653Z,1014.68
2018-05-03T11:05:31.715Z,1014.96
2018-05-03T11:06:31.528Z,1014.66
2018-05-03T11:09:13.744Z,1014.68
2018-05-03T11:10:13.731Z,1015.13
2018-05-03T11:11:13.685Z,1015.13
2018-05-03T11:12:13.651Z,1015.05
2018-05-03T11:13:13.534Z,1015.02
2018-05-03T11:14:13.491Z,1015.07
2018-05-03T11:15:13.318Z,1015.05
2018-05-03T11:16:13.372Z,1015.08
2018-05-03T11:17:13.182Z,1015.05
2018-05-03T11:18:13.117Z,1014.97
2018-05-03T11:19:13.039Z,1015.02
2018-05-03T11:20:13.127Z,1014.91
2018-05-03T11:21:12.896Z,1014.84
2018-05-03T11:22:12.898Z,1014.90
2018-05-03T11:23:12.787Z,1014.81
2018-05-03T11:24:12.739Z,1014.76
2018-05-03T11:25:12.675Z,1014.90
2018-05-03T11:26:12.623Z,1014.95
2018-05-03T11:27:12.523Z,1014.96
2018-05-03T11:28:12.428Z,1014.93
2018-05-03T11:29:12.344Z,1015.06
2018-05-03T11:30:12.354Z,1014.92
2018-05-03T11:31:12.216Z,1014.86
2018-05-03T11:32:12.236Z,1014.95
2018-05-03T11:33:12.093Z,1014.96
2018-05-03T11:34:12.069Z,1014.64
2018-05-03T11:35:11.946Z,1014.65
2018-05-03T11:36:12.992Z,1014.82
2018-05-03T11:37:11.787Z,1014.96
2018-05-03T11:38:11.768Z,1014.72
2018-05-03T11:39:11.868Z,1015.03
2018-05-03T11:40:11.692Z,1014.94
2018-05-03T11:41:11.529Z,1014.89
2018-05-03T11:42:11.489Z,1014.94
2018-05-03T11:43:11.480Z,1014.74
2018-05-03T11:45:53.530Z,1014.62
2018-05-03T11:46:53.503Z,1014.63
2018-05-03T11:47:53.533Z,1014.57
2018-05-03T11:50:35.267Z,1014.64
2018-05-03T11:51:35.205Z,1014.59
2018-05-03T11:52:35.138Z,1014.67
2018-05-03T11:53:35.127Z,1014.66
2018-05-03T11:54:34.945Z,1014.69
2018-05-03T11:55:34.956Z,1014.64
2018-05-03T11:56:34.825Z,1014.73
2018-05-03T11:59:16.833Z,1014.65
2018-05-03T12:00:16.722Z,1014.62
2018-05-03T12:01:16.630Z,1014.59
2018-05-03T12:02:16.640Z,1014.60
2018-05-03T12:03:16.496Z,1014.62
2018-05-03T12:04:16.449Z,1014.59
2018-05-03T12:05:16.352Z,1014.64
2018-05-03T12:06:16.286Z,1014.59
2018-05-03T12:07:16.157Z,1014.64
2018-05-03T12:08:16.162Z,1014.58
2018-05-03T12:09:16.003Z,1014.59
2018-05-03T12:10:15.975Z,1014.59
2018-05-03T12:11:15.934Z,1014.61
2018-05-03T12:12:15.834Z,1014.65
2018-05-03T12:13:15.702Z,1014.65
2018-05-03T12:14:15.636Z,1014.68
2018-05-03T12:15:15.550Z,1014.73
2018-05-03T12:16:15.487Z,1014.76
2018-05-03T12:17:15.416Z,1014.81
2018-05-03T12:18:15.419Z,1014.81
2018-05-03T12:19:15.258Z,1014.84
2018-05-03T12:21:57.338Z,1014.77
2018-05-03T12:22:57.208Z,1014.82
2018-05-03T12:23:57.159Z,1014.82
2018-05-03T12:24:59.380Z,1014.78
2018-05-03T12:25:56.955Z,1014.82
2018-05-03T12:26:56.929Z,1014.80
2018-05-03T12:27:56.804Z,1014.81
2018-05-03T12:30:42.783Z,1014.80
2018-05-03T12:31:42.773Z,1014.86
2018-05-03T12:32:42.619Z,1014.87
2018-05-03T12:33:42.654Z,1014.82
2018-05-03T12:34:42.451Z,1014.84
2018-05-03T12:35:42.460Z,1014.83
2018-05-03T12:36:42.296Z,1014.80
2018-05-03T12:37:42.299Z,1014.80
2018-05-03T12:38:42.156Z,1014.82
2018-05-03T12:39:43.149Z,1014.84
2018-05-03T12:40:42.019Z,1014.83
2018-05-03T12:41:42.007Z,1014.87
2018-05-03T12:42:41.842Z,1014.85
2018-05-03T12:43:41.794Z,1014.83
2018-05-03T12:44:41.724Z,1014.89
2018-05-03T12:45:41.620Z,1014.87
2018-05-03T12:46:41.551Z,1014.89
2018-05-03T12:47:42.501Z,1014.92
2018-05-03T12:48:41.376Z,1014.90
2018-05-03T12:49:41.323Z,1014.89
2018-05-03T12:50:41.251Z,1014.92
2018-05-03T12:51:41.308Z,1014.82
2018-05-03T12:52:41.103Z,1014.80
2018-05-03T12:53:41.006Z,1014.81
2018-05-03T12:54:40.980Z,1014.83
2018-05-03T12:55:41.012Z,1014.81
2018-05-03T12:56:40.785Z,1014.78
2018-05-03T12:57:40.801Z,1014.78
2018-05-03T12:58:40.647Z,1014.70
2018-05-03T12:59:40.679Z,1014.69
2018-05-03T13:00:40.526Z,1014.70
2018-05-03T13:01:40.495Z,1014.70
2018-05-03T13:02:40.327Z,1014.74
2018-05-03T13:03:41.367Z,1014.77
2018-05-03T13:04:40.160Z,1014.73
2018-05-03T13:05:40.237Z,1014.75
2018-05-03T13:06:40.042Z,1014.72
2018-05-03T13:07:40.040Z,1014.70
2018-05-03T13:08:39.856Z,1014.71
2018-05-03T13:11:21.776Z,1014.72
2018-05-03T13:12:21.739Z,1014.72
2018-05-03T13:13:21.645Z,1014.80
2018-05-03T13:14:21.580Z,1014.75
2018-05-03T13:15:21.456Z,1014.77
2018-05-03T13:16:21.430Z,1014.75
2018-05-03T13:17:21.311Z,1014.77
2018-05-03T13:18:21.349Z,1014.81
2018-05-03T13:19:21.210Z,1014.76
2018-05-03T13:22:03.295Z,1014.72
2018-05-03T13:23:03.769Z,1014.68
2018-05-03T13:24:03.146Z,1014.65
2018-05-03T13:25:03.926Z,1014.64
2018-05-03T13:26:02.974Z,1014.67
2018-05-03T13:27:02.903Z,1014.63
2018-05-03T13:28:02.835Z,1014.63
2018-05-03T13:29:03.261Z,1014.60
2018-05-03T13:30:02.700Z,1014.61
2018-05-03T13:32:44.786Z,1014.60
2018-05-03T13:33:44.841Z,1014.63
2018-05-03T13:34:44.647Z,1014.61
2018-05-03T13:35:44.557Z,1014.64
2018-05-03T13:36:44.491Z,1014.58
2018-05-03T13:37:44.419Z,1014.61
2018-05-03T13:38:44.357Z,1014.62
2018-05-03T13:39:44.385Z,1014.61
2018-05-03T13:40:44.183Z,1014.57
2018-05-03T13:41:44.133Z,1014.56
2018-05-03T13:42:44.016Z,1014.55
2018-05-03T13:43:44.047Z,1014.60
2018-05-03T13:44:44.170Z,1014.63
2018-05-03T13:45:43.809Z,1014.67
2018-05-03T13:46:44.096Z,1014.68
2018-05-03T13:49:25.788Z,1014.61
2018-05-03T13:50:26.802Z,1014.64
2018-05-03T13:51:25.716Z,1014.63
2018-05-03T13:52:25.651Z,1014.60
2018-05-03T13:53:25.516Z,1014.62
2018-05-03T13:54:25.497Z,1014.67
2018-05-03T13:55:25.355Z,1014.65
2018-05-03T13:58:07.295Z,1014.61
2018-05-03T13:59:07.231Z,1014.61
2018-05-03T14:00:07.184Z,1014.68